Airport View

Enter AWOS ICAO identifier for current METAR.

ex. KFNL

KOIN 251655Z AUTO 03010KT 7SM OVC008 M04/M04 A3031 RMK AO1 T10381040

25 Oct 2020 16:54

Frequency: 119.225

Phone: 785-475-2587

Other Area AWOS: KMCK - KADT - KNRN - KCBK

TAF AMD KMCK 251435Z 2515/2612 04014G22KT 1 1/2SM -FZRA BR OVC007 TEMPO 2515/2517 2SM BR SCT007 OVC012 FM251700 03015G24KT 2SM -SN BR OVC012 FM260400 01011KT 1SM -SN BR BKN015 FM261100 01009KT 5SM -SN BR OVC040